Wh Blount — C6JT8 — position and weather

sailwx.info

Track history (hours):
 
Tides and Currents Weather Stations Pressure Air Temp Water Temp Dewpoint Dewpoint Depression Visibility Wind Speed Wind Dir Waves Ship Positions

Wh Blount

Last reported at 2018-Feb-21 17:00 UTC. Time now 2018-Feb-22 04:32 UTC.
Position N 26°30' W 091°06'.

Length 225 m; draft 7.1 m.

Type: Cargo ship. MMSI: 308271000.

Wind from 150 at 25 knots

Barometer 1021.9 mb
Air temperature 25.0 ° C
Visibility: greater than 5.4 NM
Dewpoint 22.0 ° C
Water temperature 23.0 ° C

Date/timePositionNaut miles runAvg speedWind from/ knotsBaromVisibWave heightAir tempDewpointWater temp
2018-Feb-21 17:00N 26°30' W 091°06'5210.4 150 / 251021.9 5.4 25.022.023.0
2018-Feb-21 12:00N 27°06' W 091°48'7711.0 140 / 271018.9 5.4 24.022.522.0
2018-Feb-21 05:00N 28°06' W 092°42'4814.2 130 / 231017.9 2.2 23.019.922.0
2018-Feb-21 01:36N 28°46' W 093°12'2812.5
2018-Feb-20 23:23N 29°14' W 093°13'612.3
2018-Feb-20 22:52N 29°20' W 093°13'512.4
2018-Feb-20 22:29N 29°25' W 093°13'612.3
2018-Feb-20 22:00N 29°31' W 093°13'611.7
2018-Feb-20 21:29N 29°36' W 093°17'4 8.2
2018-Feb-20 20:59N 29°39' W 093°20'710.9
2018-Feb-20 20:23N 29°46' W 093°21'3 8.4
2018-Feb-20 19:59N 29°49' W 093°21'4 9.2
2018-Feb-20 19:31N 29°53' W 093°21'5 9.4
2018-Feb-20 19:00N 29°58' W 093°20'4 8.0
2018-Feb-20 18:31N 30°02' W 093°20'4 8.2
2018-Feb-20 18:00N 30°06' W 093°20'3 6.6
2018-Feb-20 17:30N 30°09' W 093°20'3 5.3
2018-Feb-20 17:01N 30°12' W 093°18'3 5.3
2018-Feb-20 16:31N 30°13' W 093°15'1 1.6
2018-Feb-20 15:58N 30°14' W 093°15'0 0.0
2018-Feb-20 15:28N 30°14' W 093°15'0 0.0
2018-Feb-20 14:58N 30°14' W 093°15'0 0.0
2018-Feb-20 14:28N 30°14' W 093°15'0 0.0
2018-Feb-20 13:58N 30°14' W 093°15'0 0.0
2018-Feb-20 13:28N 30°14' W 093°15'0 0.0
2018-Feb-20 12:58N 30°14' W 093°15'0 0.0
2018-Feb-20 12:28N 30°14' W 093°15'0 0.0
2018-Feb-20 11:58N 30°14' W 093°15'0 0.0
2018-Feb-20 11:28N 30°14' W 093°15'0 0.0
2018-Feb-20 10:58N 30°14' W 093°15'0 0.0
2018-Feb-20 10:28N 30°14' W 093°15'0 0.0
2018-Feb-20 09:58N 30°14' W 093°15'0 0.0
2018-Feb-20 09:28N 30°14' W 093°15'0 0.0
2018-Feb-20 08:58N 30°14' W 093°15'0 0.0
2018-Feb-20 08:25N 30°14' W 093°15'0 0.0
2018-Feb-20 07:40N 30°14' W 093°15'0 0.0
2018-Feb-20 07:25N 30°14' W 093°15'0 0.0
2018-Feb-20 06:58N 30°14' W 093°15'0 0.0
2018-Feb-20 06:28N 30°14' W 093°15'0 0.0
2018-Feb-20 05:58N 30°14' W 093°15'0 0.0
2018-Feb-20 05:28N 30°14' W 093°15'0 0.0
2018-Feb-20 04:58N 30°14' W 093°15'0 0.0
2018-Feb-20 04:28N 30°14' W 093°15'0 0.0
2018-Feb-20 03:58N 30°14' W 093°15'0 0.0
2018-Feb-20 03:28N 30°14' W 093°15'0 0.0
2018-Feb-20 02:58N 30°14' W 093°15'0 0.0
2018-Feb-20 02:28N 30°14' W 093°15'0 0.0
2018-Feb-20 01:58N 30°14' W 093°15'0 0.0
2018-Feb-20 01:30N 30°14' W 093°15'1 1.6
2018-Feb-20 01:00N 30°13' W 093°15'1 2.4
2018-Feb-20 00:30N 30°12' W 093°16'2 4.6
2018-Feb-20 00:00N 30°11' W 093°18'2 3.9
2018-Feb-19 23:30N 30°10' W 093°19'2 4.8
2018-Feb-19 23:00N 30°07' W 093°20'3 5.8
2018-Feb-19 22:29N 30°04' W 093°20'3 6.6
2018-Feb-19 22:00N 30°01' W 093°20'3 6.2
2018-Feb-19 21:30N 29°58' W 093°20'3 6.8
2018-Feb-19 21:00N 29°55' W 093°21'4 7.1
2018-Feb-19 20:30N 29°51' W 093°21'4 7.3
2018-Feb-19 20:00N 29°47' W 093°21'33 9.5
2018-Feb-19 16:32N 29°15' W 093°15'0 3.8
2018-Feb-19 16:29N 29°15' W 093°15'0 0.4
2018-Feb-19 16:01N 29°15' W 093°15'0 0.0
2018-Feb-19 15:30N 29°15' W 093°15'0 0.0
2018-Feb-19 15:00N 29°15' W 093°15'0 0.0
2018-Feb-19 14:30N 29°15' W 093°15'0 0.0
2018-Feb-19 13:42N 29°15' W 093°15'0 0.0
2018-Feb-19 13:24N 29°15' W 093°15'0 0.0
2018-Feb-19 12:57N 29°15' W 093°15'0 0.0
2018-Feb-19 12:27N 29°15' W 093°15'0 0.0
2018-Feb-19 11:57N 29°15' W 093°15'0 0.0
2018-Feb-19 11:30N 29°15' W 093°15'0 0.0
2018-Feb-19 11:00N 29°15' W 093°15'0 0.0
2018-Feb-19 10:30N 29°15' W 093°15'0 0.0
2018-Feb-19 10:00N 29°15' W 093°15'0 0.0
2018-Feb-19 09:18N 29°15' W 093°15'0 0.0
2018-Feb-19 08:54N 29°15' W 093°15'0 0.0
2018-Feb-19 08:00N 29°15' W 093°15'0 0.0
2018-Feb-19 07:30N 29°15' W 093°15'0 0.0
2018-Feb-19 06:57N 29°15' W 093°15'0 0.3
2018-Feb-19 06:30N 29°15' W 093°15'4 5.8
2018-Feb-19 05:50N 29°11' W 093°14'410.3
2018-Feb-19 05:25N 29°07' W 093°13'1912.3
2018-Feb-19 03:51N 28°47' W 093°13'1011.9
2018-Feb-19 03:01N 28°37' W 093°12'010.3
2018-Feb-19 03:00N 28°37' W 093°12'102 9.2
2018-Feb-18 16:00N 27°18' W 092°00'4812.1 150 / 701022.410.8 26.021.522.0
2018-Feb-18 12:00N 26°42' W 091°24'15713.1 170 / 91020.410.8 24.019.4
2018-Feb-18 00:00N 24°54' W 089°18'7312.2 130 / 41020.410.8 28.018.7
2018-Feb-17 18:00N 24°00' W 088°24'7312.2 120 / 201022.410.8 27.021.0
2018-Feb-17 12:00N 23°12' W 087°24'58 9.7 090 / 111019.910.8 24.021.0
2018-Feb-17 06:00N 22°24' W 086°48'10112.5 020 / 501020.410.8 18.8
2018-Feb-16 21:53N 20°43' W 086°53'615.0
2018-Feb-16 21:29N 20°38' W 086°57'8 0.6
2018-Feb-16 06:41N 20°35' W 087°05'1 8.0
2018-Feb-16 06:31N 20°36' W 087°04'108 8.6
2018-Feb-15 18:00N 22°06' W 086°00'9215.4 310 / 161023.910.8 26.019.9
2018-Feb-15 12:00N 23°30' W 085°18'7412.3 100 / 171023.910.8 24.019.4
2018-Feb-15 06:00N 24°36' W 084°42'16814.0 330 / 161025.910.8 23.019.9
2018-Feb-14 18:00N 27°06' W 083°18'4311.3 340 / 141028.910.8 22.017.2
2018-Feb-14 14:14N 27°36' W 082°44'412.0
2018-Feb-14 13:56N 27°37' W 082°40'512.1
2018-Feb-14 13:30N 27°40' W 082°36'612.0
2018-Feb-14 13:01N 27°45' W 082°32'510.5
2018-Feb-14 12:30N 27°49' W 082°27'510.9
2018-Feb-14 12:01N 27°54' W 082°26'0 0.9
2018-Feb-14 11:28N 27°54' W 082°26'0 0.0
2018-Feb-14 10:58N 27°54' W 082°26'0 0.0
2018-Feb-14 10:28N 27°54' W 082°26'0 0.0
2018-Feb-14 09:58N 27°54' W 082°26'0 0.0
2018-Feb-14 09:28N 27°54' W 082°26'0 0.0
2018-Feb-14 08:58N 27°54' W 082°26'0 0.0
2018-Feb-14 08:28N 27°54' W 082°26'0 0.0
2018-Feb-14 07:58N 27°54' W 082°26'0 0.0
2018-Feb-14 07:28N 27°54' W 082°26'0 0.0
2018-Feb-14 06:58N 27°54' W 082°26'0 0.0
2018-Feb-14 06:28N 27°54' W 082°26'0 0.0
2018-Feb-14 05:58N 27°54' W 082°26'0 0.0
2018-Feb-14 05:31N 27°54' W 082°26'0 0.0
2018-Feb-14 05:01N 27°54' W 082°26'0 0.0
2018-Feb-14 04:31N 27°54' W 082°26'0 0.0
2018-Feb-14 04:00N 27°54' W 082°26'0 0.0
2018-Feb-14 03:30N 27°54' W 082°26'0 0.0
2018-Feb-14 03:00N 27°54' W 082°26'0 0.0
2018-Feb-14 02:30N 27°54' W 082°26'0 0.0
2018-Feb-14 02:00N 27°54' W 082°26'0 0.0
2018-Feb-14 01:30N 27°54' W 082°26'0 0.0
2018-Feb-14 01:00N 27°54' W 082°26'0 0.0
2018-Feb-14 00:30N 27°54' W 082°26'0 0.0
2018-Feb-14 00:00N 27°54' W 082°26'0 0.0
2018-Feb-13 23:30N 27°54' W 082°26'0 0.0
2018-Feb-13 23:00N 27°54' W 082°26'0 0.0
2018-Feb-13 22:30N 27°54' W 082°26'0 0.0
2018-Feb-13 22:00N 27°54' W 082°26'0 0.0
2018-Feb-13 21:30N 27°54' W 082°26'0 0.0
2018-Feb-13 21:00N 27°54' W 082°26'0 0.1
2018-Feb-13 20:30N 27°54' W 082°26'2 3.2
2018-Feb-13 20:00N 27°53' W 082°26'5 8.9
2018-Feb-13 19:30N 27°48' W 082°28'5 8.8
2018-Feb-13 18:59N 27°45' W 082°31'23718.3
2018-Feb-13 06:00N 26°12' W 086°36'17014.2 130 / 91026.310.8 23.019.9
2018-Feb-12 18:00N 24°06' W 084°30'24811.2 190 / 221022.910.8 26.021.5
2018-Feb-11 19:49N 20°38' W 086°56'510.9
2018-Feb-11 19:23N 20°36' W 087°01'  
Track history (hours):
 
Tides and Currents Weather Stations Pressure Air Temp Water Temp Dewpoint Dewpoint Depression Visibility Wind Speed Wind Dir Waves Ship Positions

Wh Blount

Last reported at 2018-Feb-21 17:00 UTC. Time now 2018-Feb-22 04:32 UTC.
Position N 26°30' W 091°06'.

Length 225 m; draft 7.1 m.

Type: Cargo ship. MMSI: 308271000.

Wind from 150 at 25 knots

Barometer 1021.9 mb
Air temperature 25.0 ° C
Visibility: greater than 5.4 NM
Dewpoint 22.0 ° C
Water temperature 23.0 ° C

Date/timePositionNaut miles runAvg speedWind from/ knotsBaromVisibWave heightAir tempDewpointWater temp
2018-Feb-21 17:00N 26°30' W 091°06'5210.4 150 / 251021.9 5.4 25.022.023.0
2018-Feb-21 12:00N 27°06' W 091°48'7711.0 140 / 271018.9 5.4 24.022.522.0
2018-Feb-21 05:00N 28°06' W 092°42'4814.2 130 / 231017.9 2.2 23.019.922.0
2018-Feb-21 01:36N 28°46' W 093°12'2812.5
2018-Feb-20 23:23N 29°14' W 093°13'612.3
2018-Feb-20 22:52N 29°20' W 093°13'512.4
2018-Feb-20 22:29N 29°25' W 093°13'612.3
2018-Feb-20 22:00N 29°31' W 093°13'611.7
2018-Feb-20 21:29N 29°36' W 093°17'4 8.2
2018-Feb-20 20:59N 29°39' W 093°20'710.9
2018-Feb-20 20:23N 29°46' W 093°21'3 8.4
2018-Feb-20 19:59N 29°49' W 093°21'4 9.2
2018-Feb-20 19:31N 29°53' W 093°21'5 9.4
2018-Feb-20 19:00N 29°58' W 093°20'4 8.0
2018-Feb-20 18:31N 30°02' W 093°20'4 8.2
2018-Feb-20 18:00N 30°06' W 093°20'3 6.6
2018-Feb-20 17:30N 30°09' W 093°20'3 5.3
2018-Feb-20 17:01N 30°12' W 093°18'3 5.3
2018-Feb-20 16:31N 30°13' W 093°15'1 1.6
2018-Feb-20 15:58N 30°14' W 093°15'0 0.0
2018-Feb-20 15:28N 30°14' W 093°15'0 0.0
2018-Feb-20 14:58N 30°14' W 093°15'0 0.0
2018-Feb-20 14:28N 30°14' W 093°15'0 0.0
2018-Feb-20 13:58N 30°14' W 093°15'0 0.0
2018-Feb-20 13:28N 30°14' W 093°15'0 0.0
2018-Feb-20 12:58N 30°14' W 093°15'0 0.0
2018-Feb-20 12:28N 30°14' W 093°15'0 0.0
2018-Feb-20 11:58N 30°14' W 093°15'0 0.0
2018-Feb-20 11:28N 30°14' W 093°15'0 0.0
2018-Feb-20 10:58N 30°14' W 093°15'0 0.0
2018-Feb-20 10:28N 30°14' W 093°15'0 0.0
2018-Feb-20 09:58N 30°14' W 093°15'0 0.0
2018-Feb-20 09:28N 30°14' W 093°15'0 0.0
2018-Feb-20 08:58N 30°14' W 093°15'0 0.0
2018-Feb-20 08:25N 30°14' W 093°15'0 0.0
2018-Feb-20 07:40N 30°14' W 093°15'0 0.0
2018-Feb-20 07:25N 30°14' W 093°15'0 0.0
2018-Feb-20 06:58N 30°14' W 093°15'0 0.0
2018-Feb-20 06:28N 30°14' W 093°15'0 0.0
2018-Feb-20 05:58N 30°14' W 093°15'0 0.0
2018-Feb-20 05:28N 30°14' W 093°15'0 0.0
2018-Feb-20 04:58N 30°14' W 093°15'0 0.0
2018-Feb-20 04:28N 30°14' W 093°15'0 0.0
2018-Feb-20 03:58N 30°14' W 093°15'0 0.0
2018-Feb-20 03:28N 30°14' W 093°15'0 0.0
2018-Feb-20 02:58N 30°14' W 093°15'0 0.0
2018-Feb-20 02:28N 30°14' W 093°15'0 0.0
2018-Feb-20 01:58N 30°14' W 093°15'0 0.0
2018-Feb-20 01:30N 30°14' W 093°15'1 1.6
2018-Feb-20 01:00N 30°13' W 093°15'1 2.4
2018-Feb-20 00:30N 30°12' W 093°16'2 4.6
2018-Feb-20 00:00N 30°11' W 093°18'2 3.9
2018-Feb-19 23:30N 30°10' W 093°19'2 4.8
2018-Feb-19 23:00N 30°07' W 093°20'3 5.8
2018-Feb-19 22:29N 30°04' W 093°20'3 6.6
2018-Feb-19 22:00N 30°01' W 093°20'3 6.2
2018-Feb-19 21:30N 29°58' W 093°20'3 6.8
2018-Feb-19 21:00N 29°55' W 093°21'4 7.1
2018-Feb-19 20:30N 29°51' W 093°21'4 7.3
2018-Feb-19 20:00N 29°47' W 093°21'33 9.5
2018-Feb-19 16:32N 29°15' W 093°15'0 3.8
2018-Feb-19 16:29N 29°15' W 093°15'0 0.4
2018-Feb-19 16:01N 29°15' W 093°15'0 0.0
2018-Feb-19 15:30N 29°15' W 093°15'0 0.0
2018-Feb-19 15:00N 29°15' W 093°15'0 0.0
2018-Feb-19 14:30N 29°15' W 093°15'0 0.0
2018-Feb-19 13:42N 29°15' W 093°15'0 0.0
2018-Feb-19 13:24N 29°15' W 093°15'0 0.0
2018-Feb-19 12:57N 29°15' W 093°15'0 0.0
2018-Feb-19 12:27N 29°15' W 093°15'0 0.0
2018-Feb-19 11:57N 29°15' W 093°15'0 0.0
2018-Feb-19 11:30N 29°15' W 093°15'0 0.0
2018-Feb-19 11:00N 29°15' W 093°15'0 0.0
2018-Feb-19 10:30N 29°15' W 093°15'0 0.0
2018-Feb-19 10:00N 29°15' W 093°15'0 0.0
2018-Feb-19 09:18N 29°15' W 093°15'0 0.0
2018-Feb-19 08:54N 29°15' W 093°15'0 0.0
2018-Feb-19 08:00N 29°15' W 093°15'0 0.0
2018-Feb-19 07:30N 29°15' W 093°15'0 0.0
2018-Feb-19 06:57N 29°15' W 093°15'0 0.3
2018-Feb-19 06:30N 29°15' W 093°15'4 5.8
2018-Feb-19 05:50N 29°11' W 093°14'410.3
2018-Feb-19 05:25N 29°07' W 093°13'1912.3
2018-Feb-19 03:51N 28°47' W 093°13'1011.9
2018-Feb-19 03:01N 28°37' W 093°12'010.3
2018-Feb-19 03:00N 28°37' W 093°12'102 9.2
2018-Feb-18 16:00N 27°18' W 092°00'4812.1 150 / 701022.410.8 26.021.522.0
2018-Feb-18 12:00N 26°42' W 091°24'15713.1 170 / 91020.410.8 24.019.4
2018-Feb-18 00:00N 24°54' W 089°18'7312.2 130 / 41020.410.8 28.018.7
2018-Feb-17 18:00N 24°00' W 088°24'7312.2 120 / 201022.410.8 27.021.0
2018-Feb-17 12:00N 23°12' W 087°24'58 9.7 090 / 111019.910.8 24.021.0
2018-Feb-17 06:00N 22°24' W 086°48'10112.5 020 / 501020.410.8 18.8
2018-Feb-16 21:53N 20°43' W 086°53'615.0
2018-Feb-16 21:29N 20°38' W 086°57'8 0.6
2018-Feb-16 06:41N 20°35' W 087°05'1 8.0
2018-Feb-16 06:31N 20°36' W 087°04'108 8.6
2018-Feb-15 18:00N 22°06' W 086°00'9215.4 310 / 161023.910.8 26.019.9
2018-Feb-15 12:00N 23°30' W 085°18'7412.3 100 / 171023.910.8 24.019.4
2018-Feb-15 06:00N 24°36' W 084°42'16814.0 330 / 161025.910.8 23.019.9
2018-Feb-14 18:00N 27°06' W 083°18'4311.3 340 / 141028.910.8 22.017.2
2018-Feb-14 14:14N 27°36' W 082°44'412.0
2018-Feb-14 13:56N 27°37' W 082°40'512.1
2018-Feb-14 13:30N 27°40' W 082°36'612.0
2018-Feb-14 13:01N 27°45' W 082°32'510.5
2018-Feb-14 12:30N 27°49' W 082°27'510.9
2018-Feb-14 12:01N 27°54' W 082°26'0 0.9
2018-Feb-14 11:28N 27°54' W 082°26'0 0.0
2018-Feb-14 10:58N 27°54' W 082°26'0 0.0
2018-Feb-14 10:28N 27°54' W 082°26'0 0.0
2018-Feb-14 09:58N 27°54' W 082°26'0 0.0
2018-Feb-14 09:28N 27°54' W 082°26'0 0.0
2018-Feb-14 08:58N 27°54' W 082°26'0 0.0
2018-Feb-14 08:28N 27°54' W 082°26'0 0.0
2018-Feb-14 07:58N 27°54' W 082°26'0 0.0
2018-Feb-14 07:28N 27°54' W 082°26'0 0.0
2018-Feb-14 06:58N 27°54' W 082°26'0 0.0
2018-Feb-14 06:28N 27°54' W 082°26'0 0.0
2018-Feb-14 05:58N 27°54' W 082°26'0 0.0
2018-Feb-14 05:31N 27°54' W 082°26'0 0.0
2018-Feb-14 05:01N 27°54' W 082°26'0 0.0
2018-Feb-14 04:31N 27°54' W 082°26'0 0.0
2018-Feb-14 04:00N 27°54' W 082°26'0 0.0
2018-Feb-14 03:30N 27°54' W 082°26'0 0.0
2018-Feb-14 03:00N 27°54' W 082°26'0 0.0
2018-Feb-14 02:30N 27°54' W 082°26'0 0.0
2018-Feb-14 02:00N 27°54' W 082°26'0 0.0
2018-Feb-14 01:30N 27°54' W 082°26'0 0.0
2018-Feb-14 01:00N 27°54' W 082°26'0 0.0
2018-Feb-14 00:30N 27°54' W 082°26'0 0.0
2018-Feb-14 00:00N 27°54' W 082°26'0 0.0
2018-Feb-13 23:30N 27°54' W 082°26'0 0.0
2018-Feb-13 23:00N 27°54' W 082°26'0 0.0
2018-Feb-13 22:30N 27°54' W 082°26'0 0.0
2018-Feb-13 22:00N 27°54' W 082°26'0 0.0
2018-Feb-13 21:30N 27°54' W 082°26'0 0.0
2018-Feb-13 21:00N 27°54' W 082°26'0 0.1
2018-Feb-13 20:30N 27°54' W 082°26'2 3.2
2018-Feb-13 20:00N 27°53' W 082°26'5 8.9
2018-Feb-13 19:30N 27°48' W 082°28'5 8.8
2018-Feb-13 18:59N 27°45' W 082°31'23718.3
2018-Feb-13 06:00N 26°12' W 086°36'17014.2 130 / 91026.310.8 23.019.9
2018-Feb-12 18:00N 24°06' W 084°30'24811.2 190 / 221022.910.8 26.021.5
2018-Feb-11 19:49N 20°38' W 086°56'510.9
2018-Feb-11 19:23N 20°36' W 087°01'  

Dump ship's entire track history